Danville, KY (40423)

6:54 PM EST on February 11, 2016 (GMT -0500)
Berwick Drive | | Change Station
CLOSE
Current Station
Personal Weather Station
Location: Danville, KY
Elevation: 980 ft
Nearby Weather Stations
Active Advisory: Special Statement Active Notice: Public Information Statement

Elev 980 ft 37.66 °N, 84.79 °W | Updated 4 minutes ago

Clear
Clear
24.7 °F
Feels Like 25 °F
N
0.0
Wind Variable Wind from ESE
Gusts 2.0 mph

Today
High -- | Low -- °F
--% Chance of Precip.
Yesterday
High -- | Low -- °F
Precip. -- in
Pressure 30.28 in
Visibility 10.0 miles
Clouds Clear
Windchill 25 °F
Dew Point 13 °F
Humidity 61%
Rainfall 0.00 in
Snow Depth Not available.
7:33 AM 6:13 PM
Waxing Crescent, 15% visible
METAR KDVK 112335Z AUTO 05003KT 10SM CLR M03/M10 A3028 RMK AO2
Pressure 30.28 in
Visibility 10.0 miles
Clouds Clear
Windchill 25 °F
Dew Point 13 °F
Humidity 61%
Rainfall 0.00 in
Snow Depth Not available.
7:33 AM 6:13 PM
Waxing Crescent, 15% visible
METAR KDVK 112335Z AUTO 05003KT 10SM CLR M03/M10 A3028 RMK AO2

10-Day Weather Forecast

Almanac

Astronomy

Feb. 11, 2016 Rise Set
Actual Time
Civil Twilight
Nautical Twilight
Astronomical Twilight
Moon
Length of Visible Light
Length of Day
Tomorrow will be .
, % of the Moon is Illuminated

Today's Extremes

State Highs State Lows

Community

WunderPhotos

Upload Photos

1,892,180 photos uploaded!

WunderBlog® & News

Nearby

Air Quality

  Air Quality AQ Index Pollutant
Not available.

Snow Depth

Station Depth Elevation

Earthquake Activity

City Distance Mag. Time & Date
Minimum magnitude displayed is 2.5.

Coastal Water Temperatures

Place Temperature

Stations

Nearby Weather Stations

Station Location Temp. Windchill Dew Point Humidity Wind Precip. Elev Updated Type
                   

Watches & Warnings

Special Statement
Issued: 2:35 PM CST Feb. 11, 2016 – National Weather Service

... Light snow around the Friday morning commute...

Light snow will overspread the region just before and around dawn.
With temperatures in the upper teens and lower 20s... all snow will
stick to untreated surfaces. Although accumulations are only
expected to be a half an inch or less... a few slick spots are
expected for the morning commute. Use caution and allow extra time
if traveling in the morning.


Bjs


335 PM EST Thu Feb 11 2016 /235 PM CST Thu Feb 11 2016/

... Light snow around the Friday morning commute...

Light snow will overspread the region just before and around dawn.
With temperatures in the upper teens and lower 20s... all snow will
stick to untreated surfaces. Although accumulations are only
expected to be a half an inch or less... a few slick spots are
expected for the morning commute. Use caution and allow extra time
if traveling in the morning.


Bjs